Terminal Aerodrome Forecast
Issued by NWS Charleston, WV

Current Version | Previous Version | Text Only | Print | Product List | Glossary Off
Versions: 1 2 3 4 5 6 7 8 9 10 11 12 13 14 15 16 17 18 19 20 21 22

000
FTUS41 KRLX 282209 AAA
TAFBKW
TAF AMD
KBKW 282209Z 2822/2918 14003KT P6SM SCT250
     FM290100 00000KT P6SM BKN250
     FM290800 00000KT P6SM BKN080
     FM291700 15004KT P6SM BKN070=

USA.gov is the U.S. government's official web portal to all federal, state and local government web resources and services.